CSCL Oceania — VRBI2 — position and weather

sailwx.info

Track history (hours):
 
Tides and Currents Weather Stations Pressure Air Temp Water Temp Dewpoint Dewpoint Depression Visibility Wind Speed Wind Dir Waves Ship Positions

CSCL Oceania

Last reported at 2016-Jun-27 00:33 UTC. Time now 2016-Jun-30 08:42 UTC.
Position N 29°40' E 122°35'.

Length 334 m; beam 42.8 m; draft 14.5 m.

Type: Cargo ship. MMSI: 477020300.

Date/timePositionNaut miles runAvg speedWind from/ knotsBaromVisibWave heightAir tempDewpointWater temp
2016-Jun-27 00:33N 29°40' E 122°35'1615.6
2016-Jun-26 23:33N 29°45' E 122°18'1212.3
2016-Jun-26 22:34N 29°55' E 122°10'6 5.7
2016-Jun-26 21:32N 29°53' E 122°03'0 0.0
2016-Jun-26 20:26N 29°53' E 122°03'0 0.0
2016-Jun-26 19:33N 29°53' E 122°03'0 0.0
2016-Jun-26 18:32N 29°53' E 122°03'0 0.0
2016-Jun-26 17:32N 29°53' E 122°03'0 0.0
2016-Jun-26 15:07N 29°53' E 122°03'0 0.0
2016-Jun-26 14:25N 29°53' E 122°03'0 0.0
2016-Jun-26 12:13N 29°53' E 122°03'0 0.0
2016-Jun-26 11:13N 29°53' E 122°03'0 0.0
2016-Jun-26 10:26N 29°53' E 122°03'1 0.7
2016-Jun-26 09:33N 29°54' E 122°04'7 6.9
2016-Jun-26 08:33N 29°52' E 122°12'10 9.9
2016-Jun-26 07:32N 29°45' E 122°20'9 9.3
2016-Jun-26 06:33N 29°45' E 122°31'1413.5
2016-Jun-26 05:32N 29°52' E 122°45'8710.4
2016-Jun-25 21:12N 31°12' E 122°08'1014.9
2016-Jun-25 20:30N 31°15' E 121°56'1313.8
2016-Jun-25 19:33N 31°20' E 121°42'7 6.9
2016-Jun-25 18:33N 31°23' E 121°35'0 0.0
2016-Jun-25 17:33N 31°23' E 121°35'0 0.0
2016-Jun-25 16:33N 31°23' E 121°35'0 0.0
2016-Jun-25 15:33N 31°23' E 121°35'0 0.0
2016-Jun-25 14:33N 31°23' E 121°35'0 0.0
2016-Jun-25 13:33N 31°23' E 121°35'0 0.0
2016-Jun-25 12:33N 31°23' E 121°35'0 0.0
2016-Jun-25 11:33N 31°23' E 121°35'0 0.0
2016-Jun-25 10:33N 31°23' E 121°35'0 0.0
2016-Jun-25 09:33N 31°23' E 121°35'0 0.0
2016-Jun-25 08:31N 31°23' E 121°35'0 0.0
2016-Jun-25 07:25N 31°23' E 121°35'0 0.0
2016-Jun-25 06:33N 31°23' E 121°35'0 0.0
2016-Jun-25 05:33N 31°23' E 121°35'0 0.0
2016-Jun-25 04:33N 31°23' E 121°35'0 0.0
2016-Jun-25 03:33N 31°23' E 121°35'0 0.0
2016-Jun-25 02:33N 31°23' E 121°35'0 0.0
2016-Jun-25 01:33N 31°23' E 121°35'0 0.0
2016-Jun-25 00:28N 31°23' E 121°35'0 0.0
2016-Jun-24 23:33N 31°23' E 121°35'0 0.0
2016-Jun-24 22:33N 31°23' E 121°35'0 0.0
2016-Jun-24 21:33N 31°23' E 121°35'0 0.0
2016-Jun-24 20:33N 31°23' E 121°35'0 0.0
2016-Jun-24 19:33N 31°23' E 121°35'1 0.7
2016-Jun-24 18:28N 31°23' E 121°34'9 9.6
2016-Jun-24 17:33N 31°19' E 121°43'1111.4
2016-Jun-24 16:33N 31°15' E 121°56'1111.2
2016-Jun-24 15:32N 31°12' E 122°09'51 9.6
2016-Jun-24 10:13N 30°48' E 123°02'66 9.9
2016-Jun-24 03:28N 29°44' E 123°22'3 3.3
2016-Jun-24 02:33N 29°43' E 123°19'4 3.2
2016-Jun-24 01:23N 29°41' E 123°15'2 3.0
2016-Jun-24 00:33N 29°39' E 123°13'54 8.6
2016-Jun-23 18:17N 28°50' E 122°48'1313.1
2016-Jun-23 17:18N 28°37' E 122°45'1113.4
2016-Jun-23 16:30N 28°27' E 122°43'1313.4
2016-Jun-23 15:33N 28°15' E 122°38'1613.7
2016-Jun-23 14:25N 28°00' E 122°31'1213.6
2016-Jun-23 13:34N 27°50' E 122°25'16513.6
2016-Jun-23 01:26N 25°35' E 120°40'1213.3
2016-Jun-23 00:33N 25°26' E 120°31'1413.2
2016-Jun-22 23:30N 25°16' E 120°20'1514.1
2016-Jun-22 22:26N 25°07' E 120°07'1314.6
2016-Jun-22 21:32N 24°59' E 119°56'1414.4
2016-Jun-22 20:33N 24°50' E 119°44'1413.8
2016-Jun-22 19:33N 24°42' E 119°32'1312.8
2016-Jun-22 18:32N 24°33' E 119°21'1312.8
2016-Jun-22 17:33N 24°25' E 119°10'1313.0
2016-Jun-22 16:32N 24°17' E 118°59'1513.6
2016-Jun-22 15:27N 24°08' E 118°46'1314.1
2016-Jun-22 14:31N 23°59' E 118°35'1414.6
2016-Jun-22 13:32N 23°51' E 118°23'1515.0
2016-Jun-22 12:33N 23°41' E 118°10'1514.8
2016-Jun-22 11:33N 23°31' E 117°58'1514.8
2016-Jun-22 10:33N 23°23' E 117°45'1914.0
2016-Jun-22 09:13N 23°13' E 117°28'171 5.1
2016-Jun-20 23:28N 22°20' E 114°31'1514.4
2016-Jun-20 22:24N 22°07' E 114°22'1414.1
2016-Jun-20 21:26N 22°13' E 114°09'7 8.2
2016-Jun-20 20:32N 22°20' E 114°07'0 0.3
2016-Jun-20 19:32N 22°20' E 114°07'0 0.0
2016-Jun-20 18:28N 22°20' E 114°07'0 0.0
2016-Jun-20 17:33N 22°20' E 114°07'0 0.0
2016-Jun-20 16:25N 22°20' E 114°07'0 0.0
2016-Jun-20 15:33N 22°20' E 114°07'0 0.0
2016-Jun-20 14:33N 22°20' E 114°07'0 0.0
2016-Jun-20 13:33N 22°20' E 114°07'0 0.0
2016-Jun-20 12:33N 22°20' E 114°07'0 0.0
2016-Jun-20 11:33N 22°20' E 114°07'0 0.0
2016-Jun-20 10:30N 22°20' E 114°07'0 0.0
2016-Jun-20 09:33N 22°20' E 114°07'0 0.0
2016-Jun-20 08:33N 22°20' E 114°07'0 0.0
2016-Jun-20 07:32N 22°20' E 114°07'0 0.0
2016-Jun-20 05:30N 22°20' E 114°07'0 0.0
2016-Jun-20 04:33N 22°20' E 114°07'2 2.1
2016-Jun-20 03:33N 22°19' E 114°06'10 9.4
2016-Jun-20 02:27N 22°10' E 114°13'1213.1
2016-Jun-20 01:33N 22°06' E 114°24'  
Track history (hours):
 
Tides and Currents Weather Stations Pressure Air Temp Water Temp Dewpoint Dewpoint Depression Visibility Wind Speed Wind Dir Waves Ship Positions

CSCL Oceania

Last reported at 2016-Jun-27 00:33 UTC. Time now 2016-Jun-30 08:42 UTC.
Position N 29°40' E 122°35'.

Length 334 m; beam 42.8 m; draft 14.5 m.

Type: Cargo ship. MMSI: 477020300.

Date/timePositionNaut miles runAvg speedWind from/ knotsBaromVisibWave heightAir tempDewpointWater temp
2016-Jun-27 00:33N 29°40' E 122°35'1615.6
2016-Jun-26 23:33N 29°45' E 122°18'1212.3
2016-Jun-26 22:34N 29°55' E 122°10'6 5.7
2016-Jun-26 21:32N 29°53' E 122°03'0 0.0
2016-Jun-26 20:26N 29°53' E 122°03'0 0.0
2016-Jun-26 19:33N 29°53' E 122°03'0 0.0
2016-Jun-26 18:32N 29°53' E 122°03'0 0.0
2016-Jun-26 17:32N 29°53' E 122°03'0 0.0
2016-Jun-26 15:07N 29°53' E 122°03'0 0.0
2016-Jun-26 14:25N 29°53' E 122°03'0 0.0
2016-Jun-26 12:13N 29°53' E 122°03'0 0.0
2016-Jun-26 11:13N 29°53' E 122°03'0 0.0
2016-Jun-26 10:26N 29°53' E 122°03'1 0.7
2016-Jun-26 09:33N 29°54' E 122°04'7 6.9
2016-Jun-26 08:33N 29°52' E 122°12'10 9.9
2016-Jun-26 07:32N 29°45' E 122°20'9 9.3
2016-Jun-26 06:33N 29°45' E 122°31'1413.5
2016-Jun-26 05:32N 29°52' E 122°45'8710.4
2016-Jun-25 21:12N 31°12' E 122°08'1014.9
2016-Jun-25 20:30N 31°15' E 121°56'1313.8
2016-Jun-25 19:33N 31°20' E 121°42'7 6.9
2016-Jun-25 18:33N 31°23' E 121°35'0 0.0
2016-Jun-25 17:33N 31°23' E 121°35'0 0.0
2016-Jun-25 16:33N 31°23' E 121°35'0 0.0
2016-Jun-25 15:33N 31°23' E 121°35'0 0.0
2016-Jun-25 14:33N 31°23' E 121°35'0 0.0
2016-Jun-25 13:33N 31°23' E 121°35'0 0.0
2016-Jun-25 12:33N 31°23' E 121°35'0 0.0
2016-Jun-25 11:33N 31°23' E 121°35'0 0.0
2016-Jun-25 10:33N 31°23' E 121°35'0 0.0
2016-Jun-25 09:33N 31°23' E 121°35'0 0.0
2016-Jun-25 08:31N 31°23' E 121°35'0 0.0
2016-Jun-25 07:25N 31°23' E 121°35'0 0.0
2016-Jun-25 06:33N 31°23' E 121°35'0 0.0
2016-Jun-25 05:33N 31°23' E 121°35'0 0.0
2016-Jun-25 04:33N 31°23' E 121°35'0 0.0
2016-Jun-25 03:33N 31°23' E 121°35'0 0.0
2016-Jun-25 02:33N 31°23' E 121°35'0 0.0
2016-Jun-25 01:33N 31°23' E 121°35'0 0.0
2016-Jun-25 00:28N 31°23' E 121°35'0 0.0
2016-Jun-24 23:33N 31°23' E 121°35'0 0.0
2016-Jun-24 22:33N 31°23' E 121°35'0 0.0
2016-Jun-24 21:33N 31°23' E 121°35'0 0.0
2016-Jun-24 20:33N 31°23' E 121°35'0 0.0
2016-Jun-24 19:33N 31°23' E 121°35'1 0.7
2016-Jun-24 18:28N 31°23' E 121°34'9 9.6
2016-Jun-24 17:33N 31°19' E 121°43'1111.4
2016-Jun-24 16:33N 31°15' E 121°56'1111.2
2016-Jun-24 15:32N 31°12' E 122°09'51 9.6
2016-Jun-24 10:13N 30°48' E 123°02'66 9.9
2016-Jun-24 03:28N 29°44' E 123°22'3 3.3
2016-Jun-24 02:33N 29°43' E 123°19'4 3.2
2016-Jun-24 01:23N 29°41' E 123°15'2 3.0
2016-Jun-24 00:33N 29°39' E 123°13'54 8.6
2016-Jun-23 18:17N 28°50' E 122°48'1313.1
2016-Jun-23 17:18N 28°37' E 122°45'1113.4
2016-Jun-23 16:30N 28°27' E 122°43'1313.4
2016-Jun-23 15:33N 28°15' E 122°38'1613.7
2016-Jun-23 14:25N 28°00' E 122°31'1213.6
2016-Jun-23 13:34N 27°50' E 122°25'16513.6
2016-Jun-23 01:26N 25°35' E 120°40'1213.3
2016-Jun-23 00:33N 25°26' E 120°31'1413.2
2016-Jun-22 23:30N 25°16' E 120°20'1514.1
2016-Jun-22 22:26N 25°07' E 120°07'1314.6
2016-Jun-22 21:32N 24°59' E 119°56'1414.4
2016-Jun-22 20:33N 24°50' E 119°44'1413.8
2016-Jun-22 19:33N 24°42' E 119°32'1312.8
2016-Jun-22 18:32N 24°33' E 119°21'1312.8
2016-Jun-22 17:33N 24°25' E 119°10'1313.0
2016-Jun-22 16:32N 24°17' E 118°59'1513.6
2016-Jun-22 15:27N 24°08' E 118°46'1314.1
2016-Jun-22 14:31N 23°59' E 118°35'1414.6
2016-Jun-22 13:32N 23°51' E 118°23'1515.0
2016-Jun-22 12:33N 23°41' E 118°10'1514.8
2016-Jun-22 11:33N 23°31' E 117°58'1514.8
2016-Jun-22 10:33N 23°23' E 117°45'1914.0
2016-Jun-22 09:13N 23°13' E 117°28'171 5.1
2016-Jun-20 23:28N 22°20' E 114°31'1514.4
2016-Jun-20 22:24N 22°07' E 114°22'1414.1
2016-Jun-20 21:26N 22°13' E 114°09'7 8.2
2016-Jun-20 20:32N 22°20' E 114°07'0 0.3
2016-Jun-20 19:32N 22°20' E 114°07'0 0.0
2016-Jun-20 18:28N 22°20' E 114°07'0 0.0
2016-Jun-20 17:33N 22°20' E 114°07'0 0.0
2016-Jun-20 16:25N 22°20' E 114°07'0 0.0
2016-Jun-20 15:33N 22°20' E 114°07'0 0.0
2016-Jun-20 14:33N 22°20' E 114°07'0 0.0
2016-Jun-20 13:33N 22°20' E 114°07'0 0.0
2016-Jun-20 12:33N 22°20' E 114°07'0 0.0
2016-Jun-20 11:33N 22°20' E 114°07'0 0.0
2016-Jun-20 10:30N 22°20' E 114°07'0 0.0
2016-Jun-20 09:33N 22°20' E 114°07'0 0.0
2016-Jun-20 08:33N 22°20' E 114°07'0 0.0
2016-Jun-20 07:32N 22°20' E 114°07'0 0.0
2016-Jun-20 05:30N 22°20' E 114°07'0 0.0
2016-Jun-20 04:33N 22°20' E 114°07'2 2.1
2016-Jun-20 03:33N 22°19' E 114°06'10 9.4
2016-Jun-20 02:27N 22°10' E 114°13'1213.1
2016-Jun-20 01:33N 22°06' E 114°24'  

Dump ship's entire track history